Time;durP1;ratioP1;P1;durP2;ratioP2;P2;SDS_P1;SDS_P2;PMS_P1;PMS_P2;Temp;Humidity;BMP_temperature;BMP_pressure;BME280_temperature;BME280_humidity;BME280_pressure;Samples;Min_cycle;Max_cycle;Signal;HPM_P1;HPM_P2
2022/02/16 00:01:30;;;;;;;5.07;2.35;;;6.70;79.80;;;;;;4956755;29;20059;-78
2022/02/16 00:03:56;;;;;;;2.10;1.52;;;6.70;79.80;;;;;;4956834;28;20050;-74
2022/02/16 00:06:23;;;;;;;4.35;1.77;;;6.60;79.90;;;;;;4956363;29;20035;-74
2022/02/16 00:08:49;;;;;;;1.60;1.10;;;6.70;79.80;;;;;;4955981;29;20043;-74
2022/02/16 00:11:15;;;;;;;2.58;1.25;;;6.70;79.60;;;;;;4955692;29;20027;-74
2022/02/16 00:13:41;;;;;;;5.53;1.70;;;6.70;79.60;;;;;;4957274;29;20031;-74
2022/02/16 00:16:10;;;;;;;3.78;1.63;;;6.60;79.90;;;;;;4956950;29;20042;-75
2022/02/16 00:18:38;;;;;;;3.00;2.05;;;6.60;79.90;;;;;;4956151;28;20043;-75
2022/02/16 00:21:08;;;;;;;6.43;2.15;;;6.60;79.80;;;;;;4939770;29;20385;-75
2022/02/16 00:23:34;;;;;;;4.25;2.53;;;6.60;79.80;;;;;;4956603;29;20388;-75
2022/02/16 00:26:02;;;;;;;4.47;1.95;;;6.60;79.80;;;;;;4957151;29;20035;-75
2022/02/16 00:28:32;;;;;;;10.50;4.13;;;6.50;80.00;;;;;;4956046;29;20050;-74
2022/02/16 00:30:59;;;;;;;5.35;1.88;;;6.60;80.10;;;;;;4955612;29;20047;-75
2022/02/16 00:33:25;;;;;;;3.83;2.88;;;6.60;80.20;;;;;;4956347;29;20385;-74
2022/02/16 00:35:51;;;;;;;9.32;2.38;;;6.60;80.30;;;;;;4955468;29;20047;-75
2022/02/16 00:38:18;;;;;;;2.25;1.75;;;6.60;80.50;;;;;;4956067;29;20035;-75
2022/02/16 00:40:45;;;;;;;2.58;1.80;;;6.60;80.70;;;;;;4957609;29;20039;-73
2022/02/16 00:43:12;;;;;;;2.95;1.92;;;6.50;80.40;;;;;;4955497;29;20043;-75
2022/02/16 00:45:38;;;;;;;2.60;2.10;;;6.60;80.50;;;;;;4956949;29;20031;-75
2022/02/16 00:48:04;;;;;;;2.28;1.75;;;6.60;80.70;;;;;;4955921;29;20484;-75
2022/02/16 00:50:35;;;;;;;4.03;3.33;;;6.50;81.10;;;;;;4954645;29;20039;-75
2022/02/16 00:53:02;;;;;;;3.03;1.80;;;6.50;80.80;;;;;;4955799;29;20046;-74
2022/02/16 00:55:30;;;;;;;6.80;2.90;;;6.50;80.80;;;;;;4955080;29;20055;-74
2022/02/16 00:57:57;;;;;;;2.63;2.00;;;6.50;81.00;;;;;;4956420;29;20039;-76
2022/02/16 01:00:28;;;;;;;5.32;2.65;;;6.50;81.10;;;;;;4954545;29;20050;-76
2022/02/16 01:02:54;;;;;;;9.68;4.65;;;6.50;81.20;;;;;;4955708;29;20500;-75
2022/02/16 01:05:20;;;;;;;7.10;4.47;;;6.50;81.20;;;;;;4955729;29;20046;-76
2022/02/16 01:07:47;;;;;;;2.67;1.65;;;6.50;81.30;;;;;;4956068;28;20043;-75
2022/02/16 01:10:16;;;;;;;4.15;2.28;;;6.50;81.40;;;;;;4954345;29;20401;-75
2022/02/16 01:12:47;;;;;;;4.15;2.00;;;6.50;81.40;;;;;;4954912;29;20051;-75
2022/02/16 01:15:14;;;;;;;4.63;2.55;;;6.60;81.60;;;;;;4953867;29;20051;-75
2022/02/16 01:17:42;;;;;;;13.70;9.00;;;6.50;81.50;;;;;;4954564;29;20054;-74
2022/02/16 01:20:13;;;;;;;6.35;3.25;;;6.50;81.90;;;;;;4954447;29;20043;-76
2022/02/16 01:22:41;;;;;;;3.83;2.10;;;6.50;82.00;;;;;;4954522;29;20050;-75
2022/02/16 01:25:12;;;;;;;13.32;4.78;;;6.50;82.10;;;;;;4956135;29;20034;-75
2022/02/16 01:27:39;;;;;;;7.88;3.88;;;6.50;82.20;;;;;;4954909;29;20039;-75
2022/02/16 01:30:07;;;;;;;8.25;6.25;;;6.50;82.30;;;;;;4954215;29;20385;-75
2022/02/16 01:32:52;;;;;;;4.18;1.92;;;6.50;82.50;;;;;;4961072;28;20039;-74
2022/02/16 01:35:25;;;;;;;2.45;1.70;;;6.50;82.50;;;;;;4953661;29;20039;-76
2022/02/16 01:37:51;;;;;;;1.95;1.42;;;6.50;82.50;;;;;;4954230;29;20038;-76
2022/02/16 01:40:18;;;;;;;7.88;1.98;;;6.50;82.80;;;;;;4953455;29;20046;-74
2022/02/16 01:42:48;;;;;;;2.25;1.45;;;6.50;82.90;;;;;;4953960;29;20050;-74
2022/02/16 01:45:27;;;;;;;2.42;1.38;;;6.50;83.10;;;;;;4953390;29;20039;-75
2022/02/16 01:47:54;;;;;;;4.70;1.80;;;6.40;83.20;;;;;;4953682;29;20113;-75
2022/02/16 01:50:21;;;;;;;2.40;1.10;;;6.50;83.30;;;;;;4952920;29;20050;-74
2022/02/16 01:52:48;;;;;;;2.53;1.55;;;6.50;83.60;;;;;;4953592;29;20039;-75
2022/02/16 01:55:15;;;;;;;4.07;1.42;;;6.40;83.80;;;;;;4953980;29;20046;-75
2022/02/16 01:57:43;;;;;;;3.60;1.42;;;6.40;84.20;;;;;;4953318;29;20043;-75
2022/02/16 02:00:13;;;;;;;3.50;1.25;;;6.40;84.50;;;;;;4953229;29;20054;-75
2022/02/16 02:02:45;;;;;;;3.83;1.27;;;6.40;84.70;;;;;;4916808;29;20047;-75
2022/02/16 02:05:19;;;;;;;1.88;1.17;;;6.40;85.00;;;;;;4914990;29;20051;-75
2022/02/16 02:07:46;;;;;;;2.15;1.15;;;6.40;85.30;;;;;;4915601;29;20055;-76
2022/02/16 02:10:14;;;;;;;3.85;1.45;;;6.40;85.50;;;;;;4915740;29;20051;-75
2022/02/16 02:12:47;;;;;;;4.88;1.23;;;6.40;85.80;;;;;;4917387;29;20032;-76
2022/02/16 02:15:19;;;;;;;2.15;1.00;;;6.30;85.80;;;;;;4916994;29;20052;-75
2022/02/16 02:17:59;;;;;;;1.65;1.20;;;6.30;86.30;;;;;;4931091;29;20060;-75
2022/02/16 02:20:29;;;;;;;1.70;1.05;;;6.30;86.80;;;;;;4937181;29;20051;-75
2022/02/16 02:22:56;;;;;;;2.47;1.20;;;6.40;87.30;;;;;;4916222;29;20047;-75
2022/02/16 02:25:22;;;;;;;2.95;1.60;;;6.30;87.50;;;;;;4914628;29;20048;-74
2022/02/16 02:27:50;;;;;;;1.63;1.08;;;6.30;87.80;;;;;;4900090;29;20497;-75
2022/02/16 02:30:16;;;;;;;2.67;0.85;;;6.30;87.90;;;;;;4915290;29;20150;-76
2022/02/16 02:32:44;;;;;;;2.38;0.90;;;6.30;88.30;;;;;;4914516;29;20494;-74
2022/02/16 02:35:14;;;;;;;2.88;1.33;;;6.30;88.30;;;;;;4915177;29;20048;-75
2022/02/16 02:37:42;;;;;;;2.50;1.02;;;6.20;88.70;;;;;;4914111;29;20040;-74
2022/02/16 02:40:10;;;;;;;3.13;1.20;;;6.20;89.00;;;;;;4915120;29;20055;-75
2022/02/16 02:42:39;;;;;;;0.80;0.70;;;6.20;89.30;;;;;;4913984;29;20044;-76
2022/02/16 02:45:09;;;;;;;2.67;0.82;;;6.20;89.50;;;;;;4915975;29;20047;-74
2022/02/16 02:47:35;;;;;;;2.00;1.20;;;6.20;89.80;;;;;;4914139;29;20378;-75
2022/02/16 02:50:04;;;;;;;1.83;1.20;;;6.20;90.00;;;;;;4914951;29;20040;-74
2022/02/16 02:52:35;;;;;;;2.20;0.85;;;6.20;90.00;;;;;;4914220;29;20067;-74
2022/02/16 02:55:04;;;;;;;9.00;1.17;;;6.20;90.30;;;;;;4914636;29;20051;-76
2022/02/16 02:57:30;;;;;;;1.55;0.82;;;6.20;90.30;;;;;;4914912;29;20048;-75
2022/02/16 02:59:56;;;;;;;2.90;1.10;;;6.20;90.50;;;;;;4914485;29;20053;-75
2022/02/16 03:02:24;;;;;;;1.95;0.95;;;6.20;90.60;;;;;;4946992;29;20401;-73
2022/02/16 03:04:50;;;;;;;2.15;1.00;;;6.20;90.80;;;;;;4952606;29;20054;-75
2022/02/16 03:07:17;;;;;;;3.33;1.20;;;6.20;91.00;;;;;;4935982;29;20408;-75
2022/02/16 03:09:43;;;;;;;6.43;2.65;;;6.20;91.10;;;;;;4951970;29;20039;-75
2022/02/16 03:12:09;;;;;;;11.63;8.50;;;6.20;91.30;;;;;;4952910;29;20042;-75
2022/02/16 03:14:36;;;;;;;7.60;3.95;;;6.20;91.30;;;;;;4935804;29;20499;-76
2022/02/16 03:17:03;;;;;;;3.17;2.50;;;6.20;91.60;;;;;;4952109;29;20043;-76
2022/02/16 03:19:30;;;;;;;3.10;1.35;;;6.20;91.60;;;;;;4953152;29;20027;-75
2022/02/16 03:21:57;;;;;;;4.80;1.35;;;6.20;91.70;;;;;;4920982;29;20044;-74
2022/02/16 03:24:24;;;;;;;9.48;5.78;;;6.20;91.90;;;;;;4951336;29;20051;-75
2022/02/16 03:26:51;;;;;;;3.85;2.95;;;6.10;92.00;;;;;;4935955;29;20437;-76
2022/02/16 03:29:25;;;;;;;2.72;1.42;;;6.10;92.20;;;;;;4951523;28;20042;-75
2022/02/16 03:31:56;;;;;;;;;;;6.10;92.30;;;;;;4939888;29;20066;-75
2022/02/16 03:34:22;;;;;;;8.10;7.25;;;6.10;92.50;;;;;;4957210;29;19910;-75
2022/02/16 03:36:49;;;;;;;5.60;1.95;;;6.10;92.60;;;;;;4955929;29;20050;-74
2022/02/16 03:39:16;;;;;;;3.22;2.33;;;6.10;92.70;;;;;;4955756;29;20043;-75
2022/02/16 03:41:44;;;;;;;4.55;2.42;;;6.10;92.80;;;;;;4955275;29;20120;-74
2022/02/16 03:44:12;;;;;;;5.85;3.85;;;6.10;93.00;;;;;;4955938;29;20405;-75
2022/02/16 03:46:45;;;;;;;6.15;5.00;;;6.10;92.90;;;;;;4940132;29;20043;-76
2022/02/16 03:49:11;;;;;;;10.35;9.35;;;6.10;93.10;;;;;;4955891;29;20054;-75
2022/02/16 03:51:38;;;;;;;10.02;7.57;;;6.10;93.20;;;;;;4954847;29;20043;-75
2022/02/16 03:54:05;;;;;;;3.17;2.85;;;6.10;93.40;;;;;;4955603;29;20489;-74
2022/02/16 03:56:31;;;;;;;5.30;3.47;;;6.10;93.50;;;;;;4954754;29;20055;-74
2022/02/16 03:58:58;;;;;;;3.30;1.83;;;6.20;93.50;;;;;;4955557;29;20469;-75
2022/02/16 04:01:24;;;;;;;5.30;2.85;;;6.20;93.50;;;;;;4954989;29;20516;-74
2022/02/16 04:03:51;;;;;;;2.30;1.13;;;6.20;93.70;;;;;;4954726;29;20047;-75
2022/02/16 04:06:17;;;;;;;3.38;1.05;;;6.20;93.80;;;;;;4955351;29;20047;-75
2022/02/16 04:08:45;;;;;;;4.97;2.35;;;6.20;93.90;;;;;;4954530;29;20070;-76
2022/02/16 04:11:11;;;;;;;1.98;0.90;;;6.20;94.00;;;;;;4956162;29;20047;-76
2022/02/16 04:13:38;;;;;;;3.03;1.08;;;6.20;94.10;;;;;;4954927;29;20046;-75
2022/02/16 04:16:05;;;;;;;3.80;1.48;;;6.20;94.20;;;;;;4955479;29;20043;-74
2022/02/16 04:18:32;;;;;;;2.72;0.88;;;6.10;94.50;;;;;;4954378;29;20043;-74
2022/02/16 04:20:59;;;;;;;2.47;0.90;;;6.10;94.50;;;;;;4955034;29;20070;-75
2022/02/16 04:23:36;;;;;;;3.05;1.20;;;6.10;94.60;;;;;;4954283;29;20039;-75
2022/02/16 04:26:03;;;;;;;2.17;1.40;;;6.20;94.80;;;;;;4956369;29;20485;-74
2022/02/16 04:28:30;;;;;;;2.40;1.05;;;6.10;94.80;;;;;;4956457;29;20342;-75
2022/02/16 04:30:56;;;;;;;1.88;1.13;;;6.20;95.10;;;;;;4954538;29;20058;-74
2022/02/16 04:33:22;;;;;;;3.47;1.30;;;6.10;95.10;;;;;;4955390;28;20050;-75
2022/02/16 04:35:49;;;;;;;1.63;1.00;;;6.10;95.40;;;;;;4954045;29;20039;-76
2022/02/16 04:38:16;;;;;;;1.85;0.88;;;6.10;95.50;;;;;;4956450;29;20047;-75
2022/02/16 04:40:42;;;;;;;4.57;1.13;;;6.10;95.60;;;;;;4953709;29;20476;-74
2022/02/16 04:43:09;;;;;;;2.65;1.42;;;6.10;95.70;;;;;;4954141;29;20515;-75
2022/02/16 04:45:36;;;;;;;2.75;1.25;;;6.20;95.80;;;;;;4954010;29;20043;-75
2022/02/16 04:48:05;;;;;;;4.32;1.10;;;6.10;95.80;;;;;;4954249;29;20472;-75
2022/02/16 04:50:34;;;;;;;1.83;0.90;;;6.20;95.90;;;;;;4953965;29;20047;-75
2022/02/16 04:53:02;;;;;;;3.60;1.00;;;6.20;95.90;;;;;;4954934;29;20047;-73
2022/02/16 04:55:33;;;;;;;1.58;0.82;;;6.20;96.00;;;;;;4953749;29;20043;-75
2022/02/16 04:58:05;;;;;;;1.98;1.02;;;6.20;96.10;;;;;;4954676;29;20051;-75
2022/02/16 05:00:31;;;;;;;4.53;0.85;;;6.20;96.10;;;;;;4953292;29;20054;-75
2022/02/16 05:03:12;;;;;;;7.65;1.42;;;6.20;96.10;;;;;;4955924;29;20035;-75
2022/02/16 05:05:38;;;;;;;2.47;0.98;;;6.20;96.20;;;;;;4953615;29;20382;-75
2022/02/16 05:08:05;;;;;;;1.65;1.00;;;6.20;96.20;;;;;;4955636;29;20040;-75
2022/02/16 05:10:32;;;;;;;2.47;1.33;;;6.20;96.10;;;;;;4953419;29;20043;-74
2022/02/16 05:13:00;;;;;;;2.67;1.27;;;6.30;96.10;;;;;;4954372;29;20051;-75
2022/02/16 05:15:27;;;;;;;0.93;0.68;;;6.30;96.00;;;;;;4956130;29;20433;-75
2022/02/16 05:17:54;;;;;;;2.75;0.77;;;6.30;95.90;;;;;;4955864;29;20043;-74
2022/02/16 05:20:40;;;;;;;1.70;0.90;;;6.30;95.80;;;;;;4953604;29;20058;-75
2022/02/16 05:23:07;;;;;;;2.08;0.93;;;6.40;95.70;;;;;;4954263;29;20047;-75
2022/02/16 05:25:34;;;;;;;2.58;1.08;;;6.30;95.60;;;;;;4953449;29;20050;-76
2022/02/16 05:28:03;;;;;;;2.38;0.70;;;6.30;95.70;;;;;;4953916;29;20055;-75
2022/02/16 05:30:30;;;;;;;2.22;0.80;;;6.40;95.50;;;;;;4955363;28;20035;-74
2022/02/16 05:32:56;;;;;;;1.90;1.13;;;6.40;95.40;;;;;;4954178;28;20412;-74
2022/02/16 05:35:22;;;;;;;5.35;4.85;;;6.40;95.30;;;;;;4954031;29;20039;-74
2022/02/16 05:37:49;;;;;;;0.68;0.57;;;6.40;95.30;;;;;;4955227;29;20042;-75
2022/02/16 05:40:16;;;;;;;2.50;1.98;;;6.40;95.30;;;;;;4954082;28;20039;-74
2022/02/16 05:42:45;;;;;;;1.40;1.30;;;6.40;95.20;;;;;;4953692;28;20039;-75
2022/02/16 05:45:12;;;;;;;1.48;0.85;;;6.40;95.20;;;;;;4953061;29;20396;-74
2022/02/16 05:47:38;;;;;;;1.38;0.98;;;6.50;95.20;;;;;;4952665;29;20051;-75
2022/02/16 05:50:05;;;;;;;1.58;0.82;;;6.40;95.00;;;;;;4954906;28;20031;-74
2022/02/16 05:52:31;;;;;;;7.05;1.05;;;6.50;95.00;;;;;;4954339;28;20039;-76
2022/02/16 05:54:59;;;;;;;0.73;0.50;;;6.40;95.00;;;;;;4952817;29;20044;-75
2022/02/16 05:57:26;;;;;;;4.05;0.88;;;6.40;95.10;;;;;;4955354;29;20039;-74
2022/02/16 05:59:52;;;;;;;0.50;0.45;;;6.40;95.20;;;;;;4952835;29;20039;-74
2022/02/16 06:02:18;;;;;;;1.55;0.93;;;6.50;95.20;;;;;;4959456;28;20054;-75
2022/02/16 06:04:45;;;;;;;4.05;0.95;;;6.50;95.20;;;;;;4972865;29;20057;-75
2022/02/16 06:07:11;;;;;;;1.65;0.88;;;6.50;95.10;;;;;;4962223;29;20058;-75
2022/02/16 06:09:38;;;;;;;1.95;0.82;;;6.50;95.10;;;;;;4951829;29;20039;-73
2022/02/16 06:12:04;;;;;;;1.08;0.60;;;6.50;95.10;;;;;;4953796;29;20047;-74
2022/02/16 06:14:31;;;;;;;2.47;0.47;;;6.50;95.00;;;;;;4953227;29;20050;-77
2022/02/16 06:17:06;;;;;;;1.50;0.70;;;6.60;95.00;;;;;;4952125;28;20481;-77
2022/02/16 06:19:33;;;;;;;1.90;0.70;;;6.50;95.10;;;;;;4952800;28;20066;-78
2022/02/16 06:22:00;;;;;;;3.25;1.15;;;6.60;95.00;;;;;;4953240;28;20046;-77
2022/02/16 06:24:26;;;;;;;3.50;0.73;;;6.50;95.10;;;;;;4953067;29;20035;-77
2022/02/16 06:26:52;;;;;;;0.82;0.60;;;6.60;95.10;;;;;;4952626;28;20039;-77
2022/02/16 06:29:20;;;;;;;2.00;0.63;;;6.60;95.20;;;;;;4952769;28;20403;-78
2022/02/16 06:32:16;;;;;;;4.80;0.85;;;6.60;95.10;;;;;;4953269;28;20047;-78
2022/02/16 06:34:43;;;;;;;1.63;0.70;;;6.60;95.20;;;;;;4946330;28;20088;-77
2022/02/16 06:37:09;;;;;;;1.52;0.63;;;6.60;95.20;;;;;;4944063;28;20043;-78
2022/02/16 06:39:35;;;;;;;2.20;0.90;;;6.60;95.20;;;;;;4946022;28;20400;-78
2022/02/16 06:42:03;;;;;;;1.88;0.88;;;6.60;95.20;;;;;;4952694;29;20051;-77
2022/02/16 06:44:30;;;;;;;1.35;0.65;;;6.70;95.00;;;;;;4952970;29;20400;-76
2022/02/16 06:46:56;;;;;;;1.80;0.73;;;6.70;94.70;;;;;;4952993;28;20047;-78
2022/02/16 06:49:22;;;;;;;1.10;0.40;;;6.80;94.70;;;;;;4952439;28;20039;-77
2022/02/16 06:51:57;;;;;;;1.30;0.60;;;6.80;94.70;;;;;;4951828;29;20050;-77
2022/02/16 06:54:23;;;;;;;1.05;0.60;;;6.80;94.80;;;;;;4952836;28;20519;-76
2022/02/16 06:56:50;;;;;;;0.45;0.30;;;6.80;94.70;;;;;;4951807;28;20043;-77
2022/02/16 06:59:33;;;;;;;1.88;0.73;;;6.80;94.70;;;;;;4952746;29;20051;-77
2022/02/16 07:02:04;;;;;;;1.52;0.73;;;6.90;94.80;;;;;;4952361;29;20477;-78
2022/02/16 07:04:31;;;;;;;0.63;0.40;;;6.90;94.50;;;;;;4952143;28;20047;-78
2022/02/16 07:06:57;;;;;;;2.38;0.40;;;7.00;94.30;;;;;;4951596;29;20039;-77
2022/02/16 07:09:25;;;;;;;1.27;0.80;;;7.00;94.30;;;;;;4952767;29;20043;-77
2022/02/16 07:11:52;;;;;;;11.43;7.03;;;7.00;94.30;;;;;;4953160;29;20047;-79
2022/02/16 07:14:20;;;;;;;4.28;1.85;;;7.00;94.50;;;;;;4951975;28;20043;-79
2022/02/16 07:16:46;;;;;;;3.70;0.75;;;7.00;94.80;;;;;;4953374;28;20035;-78
2022/02/16 07:19:13;;;;;;;1.08;0.60;;;7.00;95.30;;;;;;4952684;29;20043;-78
2022/02/16 07:21:43;;;;;;;1.65;0.65;;;7.00;95.50;;;;;;4952551;29;20413;-78
2022/02/16 07:24:10;;;;;;;1.17;0.68;;;6.90;95.70;;;;;;4952810;29;20073;-75
2022/02/16 07:26:38;;;;;;;0.80;0.50;;;6.90;95.70;;;;;;4936649;29;20042;-75
2022/02/16 07:29:05;;;;;;;0.95;0.50;;;6.90;95.90;;;;;;4951055;29;20055;-75
2022/02/16 07:31:32;;;;;;;0.50;0.38;;;6.90;96.00;;;;;;4952139;28;20051;-78
2022/02/16 07:33:58;;;;;;;1.35;0.52;;;6.90;96.30;;;;;;4952386;29;20050;-78
2022/02/16 07:36:25;;;;;;;4.63;1.25;;;6.90;96.40;;;;;;4952339;28;20491;-79
2022/02/16 07:38:55;;;;;;;3.42;2.17;;;6.90;96.70;;;;;;4948563;28;20542;-78
2022/02/16 07:41:21;;;;;;;3.38;1.73;;;6.90;97.20;;;;;;4951075;29;20501;-78
2022/02/16 07:44:04;;;;;;;1.13;0.95;;;7.00;97.60;;;;;;4952195;29;20062;-77
2022/02/16 07:46:37;;;;;;;3.30;2.78;;;6.90;98.60;;;;;;4967201;28;20051;-78
2022/02/16 07:49:04;;;;;;;6.18;2.03;;;6.90;99.70;;;;;;4968119;28;20051;-77
2022/02/16 07:52:05;;;;;;;1.95;1.75;;;6.90;99.90;;;;;;4932372;29;20421;-78
2022/02/16 07:54:44;;;;;;;30.25;24.13;;;6.80;99.90;;;;;;4962685;28;20042;-78
2022/02/16 07:57:21;;;;;;;2.67;2.00;;;6.80;99.90;;;;;;4968557;28;20058;-78
2022/02/16 07:59:48;;;;;;;13.40;8.80;;;6.80;99.90;;;;;;4951762;29;20124;-78
2022/02/16 08:02:14;;;;;;;17.20;11.75;;;6.80;99.90;;;;;;4967693;28;20055;-78
2022/02/16 08:04:40;;;;;;;7.00;4.15;;;6.90;99.90;;;;;;4953568;28;20051;-79
2022/02/16 08:07:07;;;;;;;6.28;4.63;;;6.90;99.90;;;;;;4967860;28;20120;-77
2022/02/16 08:09:35;;;;;;;6.78;5.88;;;6.90;99.90;;;;;;4967915;28;20054;-78
2022/02/16 08:12:02;;;;;;;11.30;9.85;;;6.90;99.90;;;;;;4953310;28;20392;-78
2022/02/16 08:14:33;;;;;;;7.78;5.05;;;7.00;99.90;;;;;;4967241;28;20043;-78
2022/02/16 08:17:01;;;;;;;8.32;7.18;;;7.00;99.90;;;;;;4967834;28;20080;-78
2022/02/16 08:19:28;;;;;;;14.25;11.13;;;7.00;99.90;;;;;;4971000;28;20050;-78
2022/02/16 08:21:56;;;;;;;6.63;2.80;;;7.10;99.90;;;;;;4956082;29;20032;-79
2022/02/16 08:24:23;;;;;;;2.67;1.38;;;7.00;99.90;;;;;;4971126;28;20046;-77
2022/02/16 08:26:53;;;;;;;3.42;1.83;;;7.00;99.90;;;;;;4970006;28;20056;-78
2022/02/16 08:29:24;;;;;;;1.88;1.10;;;7.10;99.90;;;;;;4970890;28;20415;-78
2022/02/16 08:31:52;;;;;;;30.65;23.77;;;7.00;99.90;;;;;;4954378;29;20084;-79
2022/02/16 08:34:38;;;;;;;0.70;0.65;;;7.10;99.90;;;;;;4956164;29;20046;-78
2022/02/16 08:37:10;;;;;;;10.82;8.20;;;7.10;99.90;;;;;;4954855;29;20519;-78
2022/02/16 08:39:37;;;;;;;2.83;1.85;;;7.20;99.90;;;;;;4956154;29;20034;-78
2022/02/16 08:42:03;;;;;;;1.13;0.60;;;7.20;99.90;;;;;;4955288;28;20050;-78
2022/02/16 08:44:30;;;;;;;2.83;1.30;;;7.20;99.90;;;;;;4955999;29;20034;-78
2022/02/16 08:46:56;;;;;;;3.20;0.77;;;7.20;99.90;;;;;;4955315;28;20035;-79
2022/02/16 08:49:23;;;;;;;3.40;1.77;;;7.30;99.90;;;;;;4955532;28;20047;-79
2022/02/16 08:51:50;;;;;;;0.90;0.65;;;7.30;99.90;;;;;;4955209;28;20042;-78
2022/02/16 08:54:16;;;;;;;0.73;0.63;;;7.30;99.90;;;;;;4941182;28;20031;-79
2022/02/16 08:56:45;;;;;;;33.20;25.65;;;7.30;99.90;;;;;;4936448;29;20032;-78
2022/02/16 08:59:13;;;;;;;7.25;4.82;;;7.30;99.90;;;;;;4936591;29;20047;-78
2022/02/16 09:01:39;;;;;;;3.42;2.35;;;7.40;99.90;;;;;;4935066;29;20059;-80
2022/02/16 09:04:06;;;;;;;10.10;9.27;;;7.30;99.90;;;;;;4936578;29;20044;-78
2022/02/16 09:06:34;;;;;;;4.53;4.22;;;7.40;99.90;;;;;;4950280;28;20039;-78
2022/02/16 09:09:00;;;;;;;2.75;2.40;;;7.40;99.90;;;;;;4930336;29;20062;-78
2022/02/16 09:11:29;;;;;;;1.70;0.80;;;7.40;99.90;;;;;;4951201;28;20126;-79
2022/02/16 09:13:59;;;;;;;5.13;1.08;;;7.40;99.90;;;;;;4954743;29;20035;-79
2022/02/16 09:16:25;;;;;;;2.42;1.48;;;7.40;99.90;;;;;;4944917;28;20038;-76
2022/02/16 09:18:51;;;;;;;1.88;1.05;;;7.40;99.90;;;;;;4950892;28;20038;-76
2022/02/16 09:21:18;;;;;;;2.00;1.05;;;7.40;99.90;;;;;;4944681;28;20035;-76
2022/02/16 09:23:45;;;;;;;2.75;1.55;;;7.40;99.90;;;;;;4945919;28;20046;-76
2022/02/16 09:26:11;;;;;;;4.93;2.08;;;7.40;99.90;;;;;;4962889;28;20368;-76
2022/02/16 09:28:37;;;;;;;3.95;2.50;;;7.40;99.90;;;;;;4958402;28;20046;-78
2022/02/16 09:31:05;;;;;;;3.50;2.65;;;7.40;99.90;;;;;;4951605;28;20038;-77
2022/02/16 09:33:31;;;;;;;4.90;2.10;;;7.40;99.90;;;;;;4940030;29;20036;-76
2022/02/16 09:35:57;;;;;;;4.03;2.60;;;7.40;99.90;;;;;;4939326;28;20036;-76
2022/02/16 09:38:23;;;;;;;0.32;0.30;;;7.40;99.90;;;;;;4952662;28;20043;-78
2022/02/16 09:40:51;;;;;;;1.58;0.85;;;7.50;99.90;;;;;;4951310;29;20050;-77
2022/02/16 09:43:23;;;;;;;1.88;1.23;;;7.50;99.90;;;;;;4953811;29;20397;-78
2022/02/16 09:45:53;;;;;;;1.48;0.70;;;7.50;99.90;;;;;;4951499;29;20038;-77
2022/02/16 09:48:21;;;;;;;0.80;0.60;;;7.50;99.90;;;;;;4952019;29;20046;-78
2022/02/16 09:50:48;;;;;;;1.70;0.50;;;7.50;99.90;;;;;;4952792;29;20042;-78
2022/02/16 09:53:15;;;;;;;2.33;1.50;;;7.50;99.90;;;;;;4953668;29;20384;-79
2022/02/16 09:55:42;;;;;;;1.10;0.60;;;7.60;99.90;;;;;;4953084;28;20040;-78
2022/02/16 09:58:09;;;;;;;0.45;0.38;;;7.60;99.90;;;;;;4953697;29;20043;-78
2022/02/16 10:00:35;;;;;;;0.63;0.63;;;7.60;99.90;;;;;;4953442;29;20035;-78
2022/02/16 10:03:14;;;;;;;0.80;0.55;;;7.60;99.90;;;;;;4951862;29;20031;-77
2022/02/16 10:05:40;;;;;;;1.55;0.93;;;7.70;99.90;;;;;;4955865;29;20046;-77
2022/02/16 10:08:06;;;;;;;3.35;0.73;;;7.70;99.90;;;;;;4950902;28;20070;-77
2022/02/16 10:10:33;;;;;;;2.78;0.93;;;7.80;99.90;;;;;;4939786;28;20492;-79
2022/02/16 10:13:02;;;;;;;0.50;0.40;;;7.80;99.90;;;;;;4916967;29;20050;-78
2022/02/16 10:15:38;;;;;;;1.55;0.57;;;7.80;99.90;;;;;;4934489;29;20059;-78
2022/02/16 10:18:07;;;;;;;1.90;0.60;;;7.90;99.90;;;;;;4952857;28;20043;-77
2022/02/16 10:20:34;;;;;;;0.98;0.50;;;8.00;99.90;;;;;;4936674;28;20039;-78
2022/02/16 10:23:00;;;;;;;0.70;0.60;;;8.10;99.90;;;;;;4933978;29;20343;-78
2022/02/16 10:25:28;;;;;;;4.82;2.38;;;8.10;99.90;;;;;;4935111;29;20055;-78
2022/02/16 10:28:05;;;;;;;1.42;1.10;;;8.20;99.90;;;;;;4934014;29;20035;-78
2022/02/16 10:30:35;;;;;;;1.00;0.57;;;8.10;99.90;;;;;;4935023;29;20079;-77
2022/02/16 10:33:31;;;;;;;0.80;0.50;;;8.10;99.90;;;;;;4934764;29;20043;-79
2022/02/16 10:35:59;;;;;;;1.42;0.75;;;8.10;99.90;;;;;;4936383;29;20056;-78
2022/02/16 10:38:25;;;;;;;0.65;0.43;;;8.10;99.90;;;;;;4936225;28;20036;-78
2022/02/16 10:41:06;;;;;;;0.73;0.68;;;8.10;99.90;;;;;;4951584;28;20036;-78
2022/02/16 10:43:36;;;;;;;;;;;8.20;99.90;;;;;;4952634;29;20036;-77
2022/02/16 10:46:15;;;;;;;26.90;17.02;;;8.20;99.90;;;;;;4951881;29;19910;-78
2022/02/16 10:48:43;;;;;;;33.72;26.35;;;8.20;99.90;;;;;;4951350;29;20027;-78
2022/02/16 10:51:16;;;;;;;16.27;8.30;;;8.20;99.90;;;;;;4952142;29;20031;-76
2022/02/16 10:53:43;;;;;;;5.22;4.72;;;8.30;99.90;;;;;;4951759;29;20027;-79
2022/02/16 10:56:09;;;;;;;3.90;1.33;;;8.20;99.90;;;;;;4951129;29;20039;-78
2022/02/16 10:58:35;;;;;;;1.58;1.42;;;8.30;99.90;;;;;;4952585;28;20043;-78
2022/02/16 11:01:02;;;;;;;1.67;1.50;;;8.30;99.90;;;;;;4951913;29;20055;-78
2022/02/16 11:03:33;;;;;;;1.30;0.90;;;8.40;99.90;;;;;;4952823;29;20039;-78
2022/02/16 11:06:05;;;;;;;1.30;0.80;;;8.40;99.90;;;;;;4951066;29;20042;-78
2022/02/16 11:08:32;;;;;;;1.38;0.60;;;8.50;99.90;;;;;;4951123;29;20043;-76
2022/02/16 11:11:03;;;;;;;1.40;0.77;;;8.40;99.90;;;;;;4951706;29;20031;-76
2022/02/16 11:13:32;;;;;;;1.67;1.15;;;8.40;99.90;;;;;;4953442;29;20027;-77
2022/02/16 11:16:00;;;;;;;3.30;1.75;;;8.40;99.90;;;;;;4952742;29;20401;-76
2022/02/16 11:18:30;;;;;;;5.65;5.13;;;8.40;99.90;;;;;;4953647;29;20042;-76
2022/02/16 11:21:15;;;;;;;4.45;3.17;;;8.50;99.90;;;;;;4953268;29;20457;-77
2022/02/16 11:23:48;;;;;;;7.90;6.22;;;8.50;99.90;;;;;;4953765;29;20039;-77
2022/02/16 11:26:29;;;;;;;14.38;6.32;;;8.60;99.90;;;;;;4953551;29;20036;-77
2022/02/16 11:28:58;;;;;;;10.73;8.45;;;8.60;99.90;;;;;;4953174;29;20094;-77
2022/02/16 11:31:30;;;;;;;8.13;7.13;;;8.60;99.90;;;;;;4953291;29;20043;-77
2022/02/16 11:34:13;;;;;;;12.32;9.60;;;8.70;99.90;;;;;;4953153;28;20052;-77
2022/02/16 11:37:02;;;;;;;12.10;9.30;;;8.70;99.90;;;;;;4952218;29;20050;-76
2022/02/16 11:39:42;;;;;;;10.63;8.65;;;8.80;99.90;;;;;;4953247;29;20409;-77
2022/02/16 11:42:11;;;;;;;12.05;7.75;;;8.90;99.90;;;;;;4951506;28;20039;-78
2022/02/16 11:44:52;;;;;;;6.38;3.13;;;9.00;99.90;;;;;;4953683;29;20027;-76
2022/02/16 11:47:34;;;;;;;3.75;1.73;;;9.10;99.90;;;;;;4953642;29;20488;-78
2022/02/16 11:50:08;;;;;;;3.17;2.03;;;9.20;99.90;;;;;;4952633;28;20051;-76
2022/02/16 11:52:39;;;;;;;2.88;1.33;;;9.30;99.90;;;;;;4956063;28;20039;-76
2022/02/16 11:55:19;;;;;;;1.33;1.20;;;9.30;99.90;;;;;;4956598;29;20484;-77
2022/02/16 11:57:50;;;;;;;2.23;1.37;;;9.30;99.90;;;;;;4957304;29;20042;-78
2022/02/16 12:00:20;;;;;;;1.38;0.93;;;9.40;99.90;;;;;;4956735;28;20306;-78
2022/02/16 12:03:01;;;;;;;2.55;1.77;;;9.40;99.90;;;;;;4955480;29;20039;-79
2022/02/16 12:05:41;;;;;;;;;;;9.40;99.90;;;;;;4957802;29;20035;-78
2022/02/16 12:08:22;;;;;;;1.80;1.35;;;9.30;99.90;;;;;;4956406;28;19921;-79
2022/02/16 12:10:52;;;;;;;1.42;0.95;;;9.40;99.90;;;;;;4954683;29;20062;-79
2022/02/16 12:13:33;;;;;;;2.80;1.50;;;9.30;99.90;;;;;;4955444;28;20035;-78
2022/02/16 12:16:08;;;;;;;1.65;1.50;;;9.40;99.90;;;;;;4956172;29;20393;-79
2022/02/16 12:18:37;;;;;;;2.88;1.90;;;9.30;99.90;;;;;;4956898;29;20398;-79
2022/02/16 12:21:05;;;;;;;0.57;0.45;;;9.40;99.90;;;;;;4956321;29;20043;-79
2022/02/16 12:23:39;;;;;;;0.60;0.38;;;9.50;99.90;;;;;;4957227;29;20039;-82
2022/02/16 12:26:14;;;;;;;1.67;0.95;;;9.50;99.90;;;;;;4956652;29;20365;-83
2022/02/16 12:28:55;;;;;;;1.10;0.80;;;9.50;99.90;;;;;;4955485;29;20058;-79
2022/02/16 12:31:23;;;;;;;;;;;9.50;99.90;;;;;;4956870;29;20046;-78
2022/02/16 12:34:11;;;;;;;1.88;1.27;;;9.60;99.90;;;;;;4955970;29;20245;-78
2022/02/16 12:36:41;;;;;;;0.30;0.30;;;9.60;99.90;;;;;;4956919;29;20035;-78
2022/02/16 12:39:09;;;;;;;0.57;0.50;;;9.60;99.90;;;;;;4955719;29;20043;-77
2022/02/16 12:41:36;;;;;;;0.95;0.70;;;9.60;99.90;;;;;;4956470;29;20449;-78
2022/02/16 12:44:06;;;;;;;0.60;0.52;;;9.60;99.90;;;;;;4955534;29;20483;-78
2022/02/16 12:46:39;;;;;;;1.00;0.82;;;9.60;99.90;;;;;;4956689;29;20031;-78
2022/02/16 12:49:08;;;;;;;1.23;0.90;;;9.60;99.90;;;;;;4950088;29;20566;-78
2022/02/16 12:51:37;;;;;;;4.25;2.17;;;9.60;99.90;;;;;;4937051;29;20039;-77
2022/02/16 12:54:12;;;;;;;1.33;1.17;;;9.60;99.90;;;;;;4936329;29;20047;-77
2022/02/16 12:56:50;;;;;;;5.43;4.03;;;9.70;99.90;;;;;;4937073;29;20453;-78
2022/02/16 12:59:21;;;;;;;8.32;5.22;;;9.80;99.90;;;;;;4937002;29;20055;-78
2022/02/16 13:01:50;;;;;;;4.97;4.43;;;9.90;99.90;;;;;;4936476;29;20392;-79
2022/02/16 13:04:17;;;;;;;21.63;18.80;;;10.00;99.90;;;;;;4936650;29;20039;-78
2022/02/16 13:06:50;;;;;;;5.80;5.28;;;10.10;99.90;;;;;;4936819;29;20028;-77
2022/02/16 13:09:18;;;;;;;3.25;2.95;;;10.10;99.90;;;;;;4936905;29;20039;-77